createdAt,value
2022-11-07T00:01:56.709Z,97825.00
2022-11-07T00:04:24.554Z,97816.00
2022-11-07T00:06:53.768Z,97821.00
2022-11-07T00:09:21.514Z,97816.00
2022-11-07T00:11:49.257Z,97813.00
2022-11-07T00:14:18.778Z,97822.00
2022-11-07T00:16:49.157Z,97829.00
2022-11-07T00:19:20.240Z,97829.00
2022-11-07T00:21:48.977Z,97827.00
2022-11-07T00:24:20.395Z,97820.00
2022-11-07T00:26:49.069Z,97828.00
2022-11-07T00:29:19.938Z,97826.00
2022-11-07T00:31:49.026Z,97835.00
2022-11-07T00:34:17.304Z,97844.00
2022-11-07T00:36:45.294Z,97848.00
2022-11-07T00:39:13.068Z,97851.00
2022-11-07T00:41:42.212Z,97847.00
2022-11-07T00:44:10.047Z,97840.00
2022-11-07T00:46:37.767Z,97849.00
2022-11-07T00:49:05.600Z,97856.00
2022-11-07T00:51:33.372Z,97859.00
2022-11-07T00:54:03.334Z,97850.00
2022-11-07T00:56:31.321Z,97858.00
2022-11-07T00:59:01.683Z,97868.00
2022-11-07T01:01:34.015Z,97875.00
2022-11-07T01:04:19.924Z,97862.00
2022-11-07T01:06:48.176Z,97871.00
2022-11-07T01:09:19.131Z,97865.00
2022-11-07T01:11:48.077Z,97872.00
2022-11-07T01:14:21.673Z,97867.00
2022-11-07T01:16:49.802Z,97876.00
2022-11-07T01:19:18.605Z,97862.00
2022-11-07T01:21:46.637Z,97871.00
2022-11-07T01:24:15.663Z,97866.00
2022-11-07T01:26:47.797Z,97875.00
2022-11-07T01:29:18.440Z,97883.00
2022-11-07T01:31:47.041Z,97873.00
2022-11-07T01:34:15.016Z,97882.00
2022-11-07T01:36:42.841Z,97885.00
2022-11-07T01:39:10.869Z,97883.00
2022-11-07T01:41:40.227Z,97877.00
2022-11-07T01:45:02.498Z,97879.00
2022-11-07T01:47:38.512Z,97880.00
2022-11-07T01:50:08.875Z,97881.00
2022-11-07T01:52:42.669Z,97885.00
2022-11-07T01:55:18.543Z,97885.00
2022-11-07T01:57:50.810Z,97887.00
2022-11-07T02:00:22.159Z,97887.00
2022-11-07T02:02:59.403Z,97879.00
2022-11-07T02:05:32.501Z,97878.00
2022-11-07T02:08:01.862Z,97884.00
2022-11-07T02:10:30.419Z,97880.00
2022-11-07T02:13:01.227Z,97881.00
2022-11-07T02:15:29.468Z,97881.00
2022-11-07T02:17:59.678Z,97880.00
2022-11-07T02:20:27.570Z,97879.00
2022-11-07T02:22:59.990Z,97880.00
2022-11-07T02:25:30.780Z,97881.00
2022-11-07T02:28:03.114Z,97890.00
2022-11-07T02:30:34.787Z,97897.00
2022-11-07T02:33:03.271Z,97894.00
2022-11-07T02:35:39.593Z,97888.00
2022-11-07T02:38:12.200Z,97871.00
2022-11-07T02:40:41.672Z,97872.00
2022-11-07T02:43:13.852Z,97883.00
2022-11-07T02:45:46.145Z,97869.00
2022-11-07T02:48:14.480Z,97874.00
2022-11-07T02:50:42.442Z,97870.00
2022-11-07T02:53:10.280Z,97872.00
2022-11-07T02:55:38.183Z,97869.00
2022-11-07T02:58:07.540Z,97871.00
2022-11-07T03:00:35.402Z,97874.00
2022-11-07T03:03:03.195Z,97873.00
2022-11-07T03:05:31.018Z,97882.00
2022-11-07T03:07:58.830Z,97881.00
2022-11-07T03:10:26.707Z,97883.00
2022-11-07T03:12:54.461Z,97884.00
2022-11-07T03:15:23.648Z,97878.00
2022-11-07T03:17:51.408Z,97882.00
2022-11-07T03:20:19.512Z,97881.00
2022-11-07T03:22:47.849Z,97875.00
2022-11-07T03:25:15.681Z,97883.00
2022-11-07T03:27:48.459Z,97891.00
2022-11-07T03:30:16.567Z,97894.00
2022-11-07T03:32:46.068Z,97882.00
2022-11-07T03:35:14.423Z,97876.00
2022-11-07T03:37:42.216Z,97886.00
2022-11-07T03:40:11.087Z,97884.00
2022-11-07T03:42:40.376Z,97890.00
2022-11-07T03:45:11.004Z,97883.00
2022-11-07T03:47:41.667Z,97885.00
2022-11-07T03:50:14.652Z,97898.00
2022-11-07T03:52:42.587Z,97884.00
2022-11-07T03:55:11.680Z,97897.00
2022-11-07T03:57:39.720Z,97908.00
2022-11-07T04:00:09.861Z,97900.00
2022-11-07T04:02:37.869Z,97901.00
2022-11-07T04:05:06.794Z,97910.00
2022-11-07T04:07:36.887Z,97911.00
2022-11-07T04:10:05.316Z,97908.00
2022-11-07T04:12:50.639Z,97915.00
2022-11-07T04:15:36.356Z,97915.00
2022-11-07T04:18:04.362Z,97922.00
2022-11-07T04:20:32.216Z,97914.00
2022-11-07T04:23:01.295Z,97924.00
2022-11-07T04:25:45.619Z,97941.00
2022-11-07T04:28:15.914Z,97930.00
2022-11-07T04:30:43.714Z,97938.00
2022-11-07T04:33:11.476Z,97933.00
2022-11-07T04:35:39.356Z,97938.00
2022-11-07T04:38:08.453Z,97926.00
2022-11-07T04:40:36.284Z,97926.00
2022-11-07T04:43:08.966Z,97940.00
2022-11-07T04:45:37.899Z,97931.00
2022-11-07T04:48:06.594Z,97939.00
2022-11-07T04:50:34.503Z,97940.00
2022-11-07T04:53:02.224Z,97946.00
2022-11-07T04:55:32.110Z,97942.00
2022-11-07T04:58:00.138Z,97938.00
2022-11-07T05:00:27.955Z,97947.00
2022-11-07T05:02:55.846Z,97953.00
2022-11-07T05:05:23.655Z,97945.00
2022-11-07T05:07:51.622Z,97946.00
2022-11-07T05:10:21.916Z,97946.00
2022-11-07T05:12:51.920Z,97951.00
2022-11-07T05:15:20.017Z,97959.00
2022-11-07T05:17:48.294Z,97964.00
2022-11-07T05:20:32.178Z,97960.00
2022-11-07T05:23:17.704Z,97949.00
2022-11-07T05:25:48.927Z,97960.00
2022-11-07T05:28:28.085Z,97963.00
2022-11-07T05:31:00.874Z,97964.00
2022-11-07T05:33:29.757Z,97970.00
2022-11-07T05:35:57.909Z,97972.00
2022-11-07T05:38:25.662Z,97971.00
2022-11-07T05:40:53.489Z,97972.00
2022-11-07T05:43:22.586Z,97965.00
2022-11-07T05:45:50.356Z,97968.00
2022-11-07T05:48:18.265Z,97973.00
2022-11-07T05:50:46.004Z,97974.00
2022-11-07T05:53:14.108Z,97979.00
2022-11-07T05:55:42.610Z,97973.00
2022-11-07T05:58:12.450Z,97980.00
2022-11-07T06:00:42.503Z,97978.00
2022-11-07T06:03:10.978Z,97973.00
2022-11-07T06:05:40.386Z,97979.00
2022-11-07T06:08:08.966Z,97972.00
2022-11-07T06:10:37.199Z,97983.00
2022-11-07T06:13:07.253Z,97981.00
2022-11-07T06:15:37.874Z,97986.00
2022-11-07T06:18:12.411Z,97986.00
2022-11-07T06:20:40.326Z,97981.00
2022-11-07T06:23:08.282Z,97985.00
2022-11-07T06:25:37.205Z,97987.00
2022-11-07T06:28:08.487Z,98001.00
2022-11-07T06:30:37.454Z,97994.00
2022-11-07T06:33:09.209Z,98003.00
2022-11-07T06:35:37.434Z,97995.00
2022-11-07T06:38:08.811Z,97996.00
2022-11-07T06:40:37.184Z,98005.00
2022-11-07T06:43:08.931Z,98010.00
2022-11-07T06:45:36.982Z,98004.00
2022-11-07T06:48:07.241Z,98008.00
2022-11-07T06:50:36.004Z,98014.00
2022-11-07T06:53:04.763Z,98015.00
2022-11-07T06:55:34.376Z,98013.00
2022-11-07T06:58:02.768Z,98023.00
2022-11-07T07:00:32.604Z,98029.00
2022-11-07T07:03:00.682Z,98045.00
2022-11-07T07:05:29.949Z,98033.00
2022-11-07T07:07:57.891Z,98036.00
2022-11-07T07:10:26.559Z,98039.00
2022-11-07T07:12:54.478Z,98045.00
2022-11-07T07:15:22.474Z,98059.00
2022-11-07T07:17:50.411Z,98050.00
2022-11-07T07:20:18.284Z,98053.00
2022-11-07T07:22:51.971Z,98046.00
2022-11-07T07:25:25.031Z,98041.00
2022-11-07T07:27:52.840Z,98053.00
2022-11-07T07:30:20.588Z,98055.00
2022-11-07T07:32:48.328Z,98063.00
2022-11-07T07:35:16.248Z,98057.00
2022-11-07T07:37:44.131Z,98049.00
2022-11-07T07:40:13.875Z,98054.00
2022-11-07T07:42:43.215Z,98059.00
2022-11-07T07:45:13.068Z,98051.00
2022-11-07T07:47:41.781Z,98050.00
2022-11-07T07:50:13.005Z,98056.00
2022-11-07T07:52:41.184Z,98053.00
2022-11-07T07:55:10.203Z,98048.00
2022-11-07T07:57:43.403Z,98058.00
2022-11-07T08:00:13.699Z,98057.00
2022-11-07T08:02:44.131Z,98062.00
2022-11-07T08:05:13.236Z,98057.00
2022-11-07T08:07:48.718Z,98052.00
2022-11-07T08:10:41.021Z,98058.00
2022-11-07T08:13:07.141Z,98062.00
2022-11-07T08:15:35.773Z,98054.00
2022-11-07T08:18:04.407Z,98057.00
2022-11-07T08:20:32.500Z,98048.00
2022-11-07T08:23:05.150Z,98049.00
2022-11-07T08:25:33.183Z,98059.00
2022-11-07T08:28:01.742Z,98056.00
2022-11-07T08:30:31.851Z,98057.00
2022-11-07T08:33:01.551Z,98048.00
2022-11-07T08:35:29.359Z,98057.00
2022-11-07T08:37:57.422Z,98059.00
2022-11-07T08:40:25.342Z,98058.00
2022-11-07T08:42:53.280Z,98055.00
2022-11-07T08:45:21.056Z,98066.00
2022-11-07T08:47:50.272Z,98061.00
2022-11-07T08:50:18.368Z,98058.00
2022-11-07T08:52:46.171Z,98058.00
2022-11-07T08:55:13.927Z,98052.00
2022-11-07T08:57:41.714Z,98048.00
2022-11-07T09:00:11.215Z,98061.00
2022-11-07T09:05:28.065Z,98050.00
2022-11-07T09:07:55.820Z,98050.00
2022-11-07T09:10:23.689Z,98058.00
2022-11-07T09:12:52.332Z,98059.00
2022-11-07T09:15:21.087Z,98063.00
2022-11-07T09:17:50.944Z,98061.00
2022-11-07T09:20:19.737Z,98060.00
2022-11-07T09:22:48.911Z,98050.00
2022-11-07T09:25:16.867Z,98055.00
2022-11-07T09:27:45.483Z,98057.00
2022-11-07T09:30:14.607Z,98067.00
2022-11-07T09:32:45.345Z,98068.00
2022-11-07T09:35:14.086Z,98058.00
2022-11-07T09:37:43.043Z,98063.00
2022-11-07T09:40:30.391Z,98058.00
2022-11-07T09:43:16.581Z,98065.00
2022-11-07T09:45:59.386Z,98057.00
2022-11-07T09:48:39.413Z,98058.00
2022-11-07T09:51:14.749Z,98054.00
2022-11-07T09:53:49.227Z,98061.00
2022-11-07T09:56:18.447Z,98064.00
2022-11-07T09:58:54.358Z,98059.00
2022-11-07T10:01:23.673Z,98057.00
2022-11-07T10:04:22.823Z,98057.00
2022-11-07T10:06:47.453Z,98065.00
2022-11-07T10:09:23.544Z,98063.00
2022-11-07T10:12:06.344Z,98065.00
2022-11-07T10:14:53.139Z,98068.00
2022-11-07T10:17:35.438Z,98067.00
2022-11-07T10:20:24.991Z,98058.00
2022-11-07T10:23:14.177Z,98069.00
2022-11-07T10:25:53.889Z,98077.00
2022-11-07T10:28:23.202Z,98069.00
2022-11-07T10:30:55.032Z,98066.00
2022-11-07T10:33:37.457Z,98070.00
2022-11-07T10:36:17.539Z,98080.00
2022-11-07T10:38:45.454Z,98072.00
2022-11-07T10:41:17.937Z,98070.00
2022-11-07T10:43:53.065Z,98065.00
2022-11-07T10:46:26.510Z,98065.00
2022-11-07T10:48:57.869Z,98060.00
2022-11-07T10:51:40.673Z,98060.00
2022-11-07T10:54:22.350Z,98071.00
2022-11-07T10:56:58.546Z,98066.00
2022-11-07T10:59:35.630Z,98062.00
2022-11-07T11:02:19.927Z,98063.00
2022-11-07T11:04:51.328Z,98062.00
2022-11-07T11:07:24.166Z,98060.00
2022-11-07T11:09:57.540Z,98058.00
2022-11-07T11:12:28.607Z,98056.00
2022-11-07T11:15:13.294Z,98053.00
2022-11-07T11:17:41.612Z,98056.00
2022-11-07T11:20:31.968Z,98044.00
2022-11-07T11:23:01.107Z,98044.00
2022-11-07T11:25:29.049Z,98049.00
2022-11-07T11:28:06.089Z,98036.00
2022-11-07T11:30:37.978Z,98033.00
2022-11-07T11:33:13.816Z,98032.00
2022-11-07T11:35:50.582Z,98028.00
2022-11-07T11:38:25.529Z,98022.00
2022-11-07T11:41:03.548Z,98016.00
2022-11-07T11:43:45.626Z,98015.00
2022-11-07T11:46:25.072Z,97998.00
2022-11-07T11:49:00.744Z,98000.00
2022-11-07T11:51:41.365Z,98005.00
2022-11-07T11:54:16.494Z,97990.00
2022-11-07T11:56:53.689Z,98007.00
2022-11-07T11:59:43.985Z,97998.00
2022-11-07T12:02:41.392Z,98000.00
2022-11-07T12:05:24.671Z,97990.00
2022-11-07T12:08:10.064Z,98002.00
2022-11-07T12:10:47.989Z,98008.00
2022-11-07T12:13:27.675Z,98011.00
2022-11-07T12:16:11.645Z,98004.00
2022-11-07T12:18:53.765Z,98005.00
2022-11-07T12:21:32.731Z,98001.00
2022-11-07T12:24:24.334Z,98000.00
2022-11-07T12:27:00.788Z,98007.00
2022-11-07T12:29:46.199Z,98005.00
2022-11-07T12:32:24.420Z,97991.00
2022-11-07T12:35:16.465Z,98008.00
2022-11-07T12:38:15.453Z,97985.00
2022-11-07T12:40:56.435Z,98005.00
2022-11-07T12:43:37.516Z,98003.00
2022-11-07T12:46:17.717Z,97997.00
2022-11-07T12:49:22.261Z,97989.00
2022-11-07T12:52:00.117Z,97994.00
2022-11-07T12:54:47.206Z,97993.00
2022-11-07T12:57:22.138Z,97996.00
2022-11-07T12:59:59.035Z,97988.00
2022-11-07T13:02:44.900Z,97992.00
2022-11-07T13:05:35.195Z,97981.00
2022-11-07T13:08:12.557Z,98003.00
2022-11-07T13:10:54.136Z,97996.00
2022-11-07T13:13:30.626Z,98001.00
2022-11-07T13:16:15.478Z,97998.00
2022-11-07T13:18:43.793Z,97992.00
2022-11-07T13:21:14.706Z,97994.00
2022-11-07T13:23:43.811Z,98001.00
2022-11-07T13:26:44.660Z,98003.00
2022-11-07T13:29:01.875Z,98005.00
2022-11-07T13:31:38.526Z,98001.00
2022-11-07T13:34:25.767Z,98009.00
2022-11-07T13:37:02.288Z,98004.00
2022-11-07T13:39:32.385Z,98004.00
2022-11-07T13:42:02.101Z,98007.00
2022-11-07T13:44:36.916Z,98012.00
2022-11-07T13:47:13.388Z,98016.00
2022-11-07T13:49:47.351Z,98016.00
2022-11-07T13:52:21.369Z,98015.00
2022-11-07T13:54:59.799Z,98018.00
2022-11-07T13:57:35.159Z,98024.00
2022-11-07T14:00:10.976Z,98011.00
2022-11-07T14:02:38.860Z,98016.00
2022-11-07T14:05:18.976Z,98022.00
2022-11-07T14:07:52.018Z,98021.00
2022-11-07T14:10:27.747Z,98027.00
2022-11-07T14:13:07.426Z,98025.00
2022-11-07T14:15:36.566Z,98026.00
2022-11-07T14:18:05.573Z,98031.00
2022-11-07T14:20:33.362Z,98025.00
2022-11-07T14:23:02.253Z,98002.00
2022-11-07T14:25:36.661Z,98025.00
2022-11-07T14:28:15.407Z,98022.00
2022-11-07T14:30:43.671Z,98023.00
2022-11-07T14:33:19.939Z,98022.00
2022-11-07T14:35:50.675Z,97988.00
2022-11-07T14:38:25.176Z,98017.00
2022-11-07T14:40:57.261Z,98007.00
2022-11-07T14:43:26.981Z,98014.00
2022-11-07T14:46:18.150Z,98013.00
2022-11-07T14:48:49.591Z,98001.00
2022-11-07T14:51:22.835Z,98004.00
2022-11-07T14:53:58.534Z,97994.00
2022-11-07T14:56:36.414Z,97998.00
2022-11-07T14:59:04.836Z,98009.00
2022-11-07T15:01:34.891Z,98018.00
2022-11-07T15:04:15.579Z,98012.00
2022-11-07T15:06:46.125Z,98003.00
2022-11-07T15:09:13.886Z,98015.00
2022-11-07T15:11:58.405Z,98004.00
2022-11-07T15:14:31.815Z,98011.00
2022-11-07T15:17:01.089Z,98008.00
2022-11-07T15:19:29.455Z,98011.00
2022-11-07T15:22:00.800Z,98003.00
2022-11-07T15:24:38.531Z,98009.00
2022-11-07T15:27:21.489Z,98002.00
2022-11-07T15:29:55.014Z,98027.00
2022-11-07T15:32:25.822Z,98028.00
2022-11-07T15:35:23.076Z,98014.00
2022-11-07T15:37:53.905Z,98008.00
2022-11-07T15:40:23.735Z,98021.00
2022-11-07T15:42:53.052Z,98013.00
2022-11-07T15:45:21.867Z,98021.00
2022-11-07T15:47:50.643Z,98013.00
2022-11-07T15:50:22.001Z,98010.00
2022-11-07T15:52:50.510Z,98014.00
2022-11-07T15:55:21.432Z,98013.00
2022-11-07T15:57:51.498Z,98022.00
2022-11-07T16:00:24.410Z,98025.00
2022-11-07T16:02:52.616Z,98023.00
2022-11-07T16:05:21.364Z,98033.00
2022-11-07T16:07:49.292Z,98029.00
2022-11-07T16:10:22.345Z,98007.00
2022-11-07T16:12:51.648Z,98025.00
2022-11-07T16:15:23.765Z,98033.00
2022-11-07T16:17:51.695Z,98033.00
2022-11-07T16:20:23.270Z,98032.00
2022-11-07T16:22:52.367Z,98008.00
2022-11-07T16:25:24.771Z,98034.00
2022-11-07T16:28:09.066Z,98023.00
2022-11-07T16:30:38.311Z,98039.00
2022-11-07T16:33:06.075Z,98041.00
2022-11-07T16:35:33.987Z,98026.00
2022-11-07T16:38:01.784Z,98036.00
2022-11-07T16:40:29.608Z,98037.00
2022-11-07T16:42:57.381Z,98047.00
2022-11-07T16:45:25.180Z,98045.00
2022-11-07T16:47:54.398Z,98058.00
2022-11-07T16:50:22.288Z,98051.00
2022-11-07T16:52:50.113Z,98053.00
2022-11-07T16:55:20.521Z,98051.00
2022-11-07T16:57:48.871Z,98067.00
2022-11-07T17:00:20.660Z,98056.00
2022-11-07T17:02:48.975Z,98051.00
2022-11-07T17:05:18.742Z,98046.00
2022-11-07T17:07:46.559Z,98042.00
2022-11-07T17:10:18.140Z,98046.00
2022-11-07T17:12:45.998Z,98046.00
2022-11-07T17:15:13.773Z,98054.00
2022-11-07T17:17:41.676Z,98052.00
2022-11-07T17:20:49.418Z,98045.00
2022-11-07T17:23:10.969Z,98047.00
2022-11-07T17:25:39.968Z,98051.00
2022-11-07T17:28:08.919Z,98055.00
2022-11-07T17:30:36.698Z,98052.00
2022-11-07T17:33:04.709Z,98047.00
2022-11-07T17:35:34.636Z,98052.00
2022-11-07T17:38:03.759Z,98045.00
2022-11-07T17:40:34.677Z,98049.00
2022-11-07T17:43:02.374Z,98045.00
2022-11-07T17:45:30.312Z,98045.00
2022-11-07T17:47:58.133Z,98044.00
2022-11-07T17:50:26.246Z,98051.00
2022-11-07T17:52:55.403Z,98045.00
2022-11-07T17:55:24.663Z,98046.00
2022-11-07T17:57:52.477Z,98043.00
2022-11-07T18:00:23.765Z,98043.00
2022-11-07T18:02:53.569Z,98043.00
2022-11-07T18:05:30.151Z,98043.00
2022-11-07T18:08:02.616Z,98042.00
2022-11-07T18:10:30.569Z,98044.00
2022-11-07T18:12:58.721Z,98038.00
2022-11-07T18:15:26.793Z,98033.00
2022-11-07T18:17:54.570Z,98042.00
2022-11-07T18:20:22.372Z,98037.00
2022-11-07T18:22:50.201Z,98027.00
2022-11-07T18:25:19.696Z,98026.00
2022-11-07T18:27:49.034Z,98028.00
2022-11-07T18:30:17.038Z,98005.00
2022-11-07T18:32:44.837Z,98021.00
2022-11-07T18:35:12.625Z,98017.00
2022-11-07T18:37:40.383Z,98008.00
2022-11-07T18:40:11.503Z,98024.00
2022-11-07T18:42:44.765Z,98024.00
2022-11-07T18:45:13.647Z,98017.00
2022-11-07T18:47:41.530Z,98029.00
2022-11-07T18:50:11.135Z,98032.00
2022-11-07T18:52:38.908Z,98028.00
2022-11-07T18:55:07.711Z,98033.00
2022-11-07T18:57:35.479Z,98031.00
2022-11-07T19:00:12.132Z,98028.00
2022-11-07T19:02:41.132Z,98033.00
2022-11-07T19:05:09.368Z,98026.00
2022-11-07T19:07:39.737Z,98001.00
2022-11-07T19:10:08.985Z,98024.00
2022-11-07T19:12:43.942Z,98028.00
2022-11-07T19:15:14.394Z,98029.00
2022-11-07T19:17:43.918Z,98028.00
2022-11-07T19:20:12.772Z,98013.00
2022-11-07T19:22:48.493Z,98036.00
2022-11-07T19:25:18.944Z,98030.00
2022-11-07T19:27:47.993Z,98028.00
2022-11-07T19:30:17.269Z,98036.00
2022-11-07T19:32:46.301Z,98041.00
2022-11-07T19:35:16.036Z,98029.00
2022-11-07T19:37:45.248Z,98033.00
2022-11-07T19:40:13.745Z,98033.00
2022-11-07T19:42:41.542Z,98034.00
2022-11-07T19:45:16.838Z,98013.00
2022-11-07T19:47:44.782Z,98026.00
2022-11-07T19:50:18.849Z,98007.00
2022-11-07T19:52:46.709Z,98009.00
2022-11-07T19:55:20.313Z,98036.00
2022-11-07T19:57:50.732Z,98034.00
2022-11-07T20:00:25.904Z,98038.00
2022-11-07T20:02:54.691Z,98041.00
2022-11-07T20:05:24.968Z,98045.00
2022-11-07T20:07:55.406Z,98038.00
2022-11-07T20:10:26.152Z,98035.00
2022-11-07T20:12:54.800Z,98039.00
2022-11-07T20:15:27.565Z,98043.00
2022-11-07T20:17:55.479Z,98041.00
2022-11-07T20:20:27.896Z,98038.00
2022-11-07T20:22:55.719Z,98048.00
2022-11-07T20:25:23.494Z,98046.00
2022-11-07T20:27:54.089Z,98053.00
2022-11-07T20:30:23.361Z,98041.00
2022-11-07T20:32:52.659Z,98048.00
2022-11-07T20:35:20.452Z,98046.00
2022-11-07T20:37:48.170Z,98047.00
2022-11-07T20:40:16.179Z,98048.00
2022-11-07T20:42:43.934Z,98053.00
2022-11-07T20:45:17.220Z,98057.00
2022-11-07T20:47:46.533Z,98050.00
2022-11-07T20:50:21.849Z,98055.00
2022-11-07T20:52:49.878Z,98042.00
2022-11-07T20:55:20.536Z,98062.00
2022-11-07T20:57:48.365Z,98057.00
2022-11-07T21:00:32.495Z,98048.00
2022-11-07T21:03:15.977Z,98055.00
2022-11-07T21:05:45.855Z,98047.00
2022-11-07T21:08:13.624Z,98062.00
2022-11-07T21:10:51.073Z,98057.00
2022-11-07T21:13:19.667Z,98051.00
2022-11-07T21:15:51.220Z,98078.00
2022-11-07T21:18:20.431Z,98056.00
2022-11-07T21:20:48.654Z,98065.00
2022-11-07T21:23:16.745Z,98061.00
2022-11-07T21:25:48.362Z,98061.00
2022-11-07T21:28:18.624Z,98060.00
2022-11-07T21:30:58.241Z,98053.00
2022-11-07T21:33:27.743Z,98059.00
2022-11-07T21:35:55.655Z,98063.00
2022-11-07T21:38:24.314Z,98057.00
2022-11-07T21:40:52.517Z,98066.00
2022-11-07T21:43:20.578Z,98059.00
2022-11-07T21:45:48.335Z,98065.00
2022-11-07T21:48:16.586Z,98068.00
2022-11-07T21:50:45.785Z,98061.00
2022-11-07T21:53:13.958Z,98059.00
2022-11-07T21:55:41.791Z,98061.00
2022-11-07T21:58:09.539Z,98064.00
2022-11-07T22:00:39.256Z,98063.00
2022-11-07T22:03:07.072Z,98062.00
2022-11-07T22:05:35.006Z,98065.00
2022-11-07T22:08:04.171Z,98056.00
2022-11-07T22:10:31.937Z,98066.00
2022-11-07T22:13:00.340Z,98055.00
2022-11-07T22:15:28.153Z,98056.00
2022-11-07T22:17:56.090Z,98081.00
2022-11-07T22:20:24.180Z,98055.00
2022-11-07T22:22:52.127Z,98028.00
2022-11-07T22:25:21.298Z,98044.00
2022-11-07T22:27:49.095Z,98052.00
2022-11-07T22:30:17.101Z,98057.00
2022-11-07T22:32:44.975Z,98060.00
2022-11-07T22:35:12.857Z,98050.00
2022-11-07T22:37:40.662Z,98055.00
2022-11-07T22:40:11.013Z,98043.00
2022-11-07T22:42:40.145Z,98039.00
2022-11-07T22:45:10.118Z,98044.00
2022-11-07T22:47:37.935Z,98037.00
2022-11-07T22:50:07.265Z,98025.00
2022-11-07T22:52:35.050Z,98032.00
2022-11-07T22:55:03.087Z,98045.00
2022-11-07T22:57:30.916Z,98041.00
2022-11-07T23:00:12.464Z,98006.00
2022-11-07T23:02:48.064Z,98006.00
2022-11-07T23:05:16.229Z,98038.00
2022-11-07T23:07:44.111Z,98032.00
2022-11-07T23:10:11.941Z,98033.00
2022-11-07T23:12:39.734Z,98033.00
2022-11-07T23:15:10.633Z,98025.00
2022-11-07T23:17:38.485Z,98026.00
2022-11-07T23:20:08.272Z,98021.00
2022-11-07T23:22:36.528Z,98018.00
2022-11-07T23:25:04.886Z,98018.00
2022-11-07T23:27:32.681Z,98010.00
2022-11-07T23:30:00.531Z,98009.00
2022-11-07T23:32:31.451Z,98007.00
2022-11-07T23:34:59.155Z,98006.00
2022-11-07T23:37:27.037Z,98001.00
2022-11-07T23:39:55.954Z,98002.00
2022-11-07T23:42:23.755Z,97997.00
2022-11-07T23:45:09.222Z,97998.00
2022-11-07T23:47:56.205Z,98002.00
2022-11-07T23:50:41.656Z,98000.00
2022-11-07T23:53:29.934Z,98006.00
2022-11-07T23:55:56.787Z,97996.00
2022-11-07T23:58:41.772Z,97998.00
